Main page
Satellite images 10-day forecastsClimateMarine weather Cyclones Lightning AirportsFAQ Newsletter About
Weather : Europe Africa North America South America Asia Australia-Oceania Others
Languages Contact

Gloucester, England

Gloucestershire Airport

latitude: 51-54N, longitude: 002-10W, elevation: 29 m


METAR: EGBJ 261820Z 02005KT 9999 FEW045 16/09 Q1025
TAF: EGBJ 261400Z 2615/2619 33007KT 9999 SCT030

Time: 04:27 (03:27 UTC)

Current weather observation

The report was made 9 hours and 7 minutes ago, at 18:20 UTC
Wind 5 kt from the North/Northeast
Temperature 16°C
Humidity 63%
Pressure 1025 hPa
Visibility 10 km or more
Few clouds at a height of 4500 ft

Change units

Forecast

The report was made 13 hours and 27 minutes ago, at 14:00 UTC
Forecast valid from 26 at 15 UTC to 26 at 19 UTC
Wind 7 kt from the North/Northwest
Visibility 10 km or more
Scattered clouds at a height of 3000 ft
The information on this site is subject to a disclaimer
Weather : Europe Africa North America South America Asia Australia-Oceania Others
Satellite images 10-day forecastsClimateMarine weather Cyclones Lightning AirportsFAQ Languages Contact Newsletter About